sensor_id;sensor_type;location;lat;lon;timestamp;temperature;humidity
12434;DHT22;6281;49.038;8.372;2023-03-24T00:00:10;13.50;99.90
12434;DHT22;6281;49.038;8.372;2023-03-24T00:02:39;13.40;99.90
12434;DHT22;6281;49.038;8.372;2023-03-24T00:05:07;13.30;99.90
12434;DHT22;6281;49.038;8.372;2023-03-24T00:07:36;13.30;99.90
12434;DHT22;6281;49.038;8.372;2023-03-24T00:10:05;13.20;99.90
12434;DHT22;6281;49.038;8.372;2023-03-24T00:12:33;13.20;99.90
12434;DHT22;6281;49.038;8.372;2023-03-24T00:15:04;13.20;99.90
12434;DHT22;6281;49.038;8.372;2023-03-24T00:17:31;13.10;99.90
12434;DHT22;6281;49.038;8.372;2023-03-24T00:20:00;13.00;99.90
12434;DHT22;6281;49.038;8.372;2023-03-24T00:22:32;13.10;99.90
12434;DHT22;6281;49.038;8.372;2023-03-24T00:25:00;13.10;99.90
12434;DHT22;6281;49.038;8.372;2023-03-24T00:27:29;13.10;99.90
12434;DHT22;6281;49.038;8.372;2023-03-24T00:29:56;13.20;99.90
12434;DHT22;6281;49.038;8.372;2023-03-24T00:32:24;13.30;99.90
12434;DHT22;6281;49.038;8.372;2023-03-24T00:34:51;13.30;99.90
12434;DHT22;6281;49.038;8.372;2023-03-24T00:37:18;13.20;99.90
12434;DHT22;6281;49.038;8.372;2023-03-24T00:39:45;13.10;99.90
12434;DHT22;6281;49.038;8.372;2023-03-24T00:42:13;13.10;99.90
12434;DHT22;6281;49.038;8.372;2023-03-24T00:44:41;13.10;99.90
12434;DHT22;6281;49.038;8.372;2023-03-24T00:47:09;13.10;99.90
12434;DHT22;6281;49.038;8.372;2023-03-24T00:49:36;13.00;99.90
12434;DHT22;6281;49.038;8.372;2023-03-24T00:52:10;13.10;99.90
12434;DHT22;6281;49.038;8.372;2023-03-24T00:54:38;13.10;99.90
12434;DHT22;6281;49.038;8.372;2023-03-24T00:57:05;13.20;99.90
12434;DHT22;6281;49.038;8.372;2023-03-24T00:59:34;13.10;99.90
12434;DHT22;6281;49.038;8.372;2023-03-24T01:02:06;13.10;99.90
12434;DHT22;6281;49.038;8.372;2023-03-24T01:04:36;13.00;99.90
12434;DHT22;6281;49.038;8.372;2023-03-24T01:07:04;13.00;99.90
12434;DHT22;6281;49.038;8.372;2023-03-24T01:09:32;13.00;99.90
12434;DHT22;6281;49.038;8.372;2023-03-24T01:12:01;13.10;99.90
12434;DHT22;6281;49.038;8.372;2023-03-24T01:14:28;13.20;99.90
12434;DHT22;6281;49.038;8.372;2023-03-24T01:16:56;13.10;99.90
12434;DHT22;6281;49.038;8.372;2023-03-24T01:19:24;13.10;99.90
12434;DHT22;6281;49.038;8.372;2023-03-24T01:21:52;13.00;99.90
12434;DHT22;6281;49.038;8.372;2023-03-24T01:24:19;12.90;99.90
12434;DHT22;6281;49.038;8.372;2023-03-24T01:26:46;12.90;99.90
12434;DHT22;6281;49.038;8.372;2023-03-24T01:29:13;13.00;99.90
12434;DHT22;6281;49.038;8.372;2023-03-24T01:31:40;13.00;99.90
12434;DHT22;6281;49.038;8.372;2023-03-24T01:34:08;13.00;99.90
12434;DHT22;6281;49.038;8.372;2023-03-24T01:36:36;12.90;99.90
12434;DHT22;6281;49.038;8.372;2023-03-24T01:39:03;12.90;99.90
12434;DHT22;6281;49.038;8.372;2023-03-24T01:41:33;12.90;99.90
12434;DHT22;6281;49.038;8.372;2023-03-24T01:44:00;12.80;99.90
12434;DHT22;6281;49.038;8.372;2023-03-24T01:46:27;12.80;99.90
12434;DHT22;6281;49.038;8.372;2023-03-24T01:49:00;12.80;99.90
12434;DHT22;6281;49.038;8.372;2023-03-24T01:51:31;12.70;99.90
12434;DHT22;6281;49.038;8.372;2023-03-24T01:54:03;12.70;99.90
12434;DHT22;6281;49.038;8.372;2023-03-24T01:56:32;12.60;99.90
12434;DHT22;6281;49.038;8.372;2023-03-24T01:59:03;12.60;99.90
12434;DHT22;6281;49.038;8.372;2023-03-24T02:01:32;12.60;99.90
12434;DHT22;6281;49.038;8.372;2023-03-24T02:04:02;12.80;99.90
12434;DHT22;6281;49.038;8.372;2023-03-24T02:06:32;12.90;99.90
12434;DHT22;6281;49.038;8.372;2023-03-24T02:09:00;12.90;99.90
12434;DHT22;6281;49.038;8.372;2023-03-24T02:11:30;12.80;99.90
12434;DHT22;6281;49.038;8.372;2023-03-24T02:13:57;12.90;99.90
12434;DHT22;6281;49.038;8.372;2023-03-24T02:16:36;12.70;99.90
12434;DHT22;6281;49.038;8.372;2023-03-24T02:22:24;12.90;99.90
12434;DHT22;6281;49.038;8.372;2023-03-24T02:25:19;12.80;99.90
12434;DHT22;6281;49.038;8.372;2023-03-24T02:28:16;12.70;99.90
12434;DHT22;6281;49.038;8.372;2023-03-24T02:31:19;12.70;99.90
12434;DHT22;6281;49.038;8.372;2023-03-24T02:34:16;12.70;99.90
12434;DHT22;6281;49.038;8.372;2023-03-24T02:37:14;12.80;99.90
12434;DHT22;6281;49.038;8.372;2023-03-24T02:39:57;12.80;99.90
12434;DHT22;6281;49.038;8.372;2023-03-24T02:42:36;12.70;99.90
12434;DHT22;6281;49.038;8.372;2023-03-24T02:45:16;12.70;99.90
12434;DHT22;6281;49.038;8.372;2023-03-24T02:47:50;12.70;99.90
12434;DHT22;6281;49.038;8.372;2023-03-24T02:50:28;12.70;99.90
12434;DHT22;6281;49.038;8.372;2023-03-24T02:53:03;12.60;99.90
12434;DHT22;6281;49.038;8.372;2023-03-24T02:55:35;12.60;99.90
12434;DHT22;6281;49.038;8.372;2023-03-24T02:58:10;12.70;99.90
12434;DHT22;6281;49.038;8.372;2023-03-24T03:00:42;12.70;99.90
12434;DHT22;6281;49.038;8.372;2023-03-24T03:03:16;12.80;99.90
12434;DHT22;6281;49.038;8.372;2023-03-24T03:05:48;12.90;99.90
12434;DHT22;6281;49.038;8.372;2023-03-24T03:08:16;12.80;99.90
12434;DHT22;6281;49.038;8.372;2023-03-24T03:10:48;12.90;99.90
12434;DHT22;6281;49.038;8.372;2023-03-24T03:13:19;13.00;99.90
12434;DHT22;6281;49.038;8.372;2023-03-24T03:15:49;13.10;99.90
12434;DHT22;6281;49.038;8.372;2023-03-24T03:18:23;13.00;99.90
12434;DHT22;6281;49.038;8.372;2023-03-24T03:20:59;13.00;99.90
12434;DHT22;6281;49.038;8.372;2023-03-24T03:23:32;13.10;99.90
12434;DHT22;6281;49.038;8.372;2023-03-24T03:26:05;12.90;99.90
12434;DHT22;6281;49.038;8.372;2023-03-24T03:28:37;12.80;99.90
12434;DHT22;6281;49.038;8.372;2023-03-24T03:31:07;12.80;99.90
12434;DHT22;6281;49.038;8.372;2023-03-24T03:33:38;13.10;99.90
12434;DHT22;6281;49.038;8.372;2023-03-24T03:36:09;13.00;99.90
12434;DHT22;6281;49.038;8.372;2023-03-24T03:38:46;13.00;99.90
12434;DHT22;6281;49.038;8.372;2023-03-24T03:41:17;13.10;99.90
12434;DHT22;6281;49.038;8.372;2023-03-24T03:43:45;13.40;99.90
12434;DHT22;6281;49.038;8.372;2023-03-24T03:46:13;13.40;99.90
12434;DHT22;6281;49.038;8.372;2023-03-24T03:48:41;13.30;99.90
12434;DHT22;6281;49.038;8.372;2023-03-24T03:51:08;13.30;99.90
12434;DHT22;6281;49.038;8.372;2023-03-24T03:53:39;13.30;99.90
12434;DHT22;6281;49.038;8.372;2023-03-24T03:56:09;13.20;99.90
12434;DHT22;6281;49.038;8.372;2023-03-24T03:58:38;13.30;99.90
12434;DHT22;6281;49.038;8.372;2023-03-24T04:01:07;13.30;99.90
12434;DHT22;6281;49.038;8.372;2023-03-24T04:03:54;13.30;99.90
12434;DHT22;6281;49.038;8.372;2023-03-24T04:06:30;13.40;99.90
12434;DHT22;6281;49.038;8.372;2023-03-24T04:09:06;13.50;99.90
12434;DHT22;6281;49.038;8.372;2023-03-24T04:11:45;13.60;99.90
12434;DHT22;6281;49.038;8.372;2023-03-24T04:17:35;14.00;99.90
12434;DHT22;6281;49.038;8.372;2023-03-24T04:20:11;13.90;99.90
12434;DHT22;6281;49.038;8.372;2023-03-24T04:22:52;14.00;99.90
12434;DHT22;6281;49.038;8.372;2023-03-24T04:25:30;14.10;99.90
12434;DHT22;6281;49.038;8.372;2023-03-24T04:28:34;14.20;99.90
12434;DHT22;6281;49.038;8.372;2023-03-24T04:31:06;14.20;99.90
12434;DHT22;6281;49.038;8.372;2023-03-24T04:33:46;14.20;99.90
12434;DHT22;6281;49.038;8.372;2023-03-24T04:36:19;14.20;99.90
12434;DHT22;6281;49.038;8.372;2023-03-24T04:38:53;14.20;99.90
12434;DHT22;6281;49.038;8.372;2023-03-24T04:41:23;14.20;99.90
12434;DHT22;6281;49.038;8.372;2023-03-24T04:43:53;13.90;99.90
12434;DHT22;6281;49.038;8.372;2023-03-24T04:46:21;13.70;99.90
12434;DHT22;6281;49.038;8.372;2023-03-24T04:48:49;13.40;99.90
12434;DHT22;6281;49.038;8.372;2023-03-24T04:51:18;13.20;99.90
12434;DHT22;6281;49.038;8.372;2023-03-24T04:53:46;13.10;99.90
12434;DHT22;6281;49.038;8.372;2023-03-24T04:56:29;13.00;99.90
12434;DHT22;6281;49.038;8.372;2023-03-24T04:58:57;13.00;99.90
12434;DHT22;6281;49.038;8.372;2023-03-24T05:01:25;12.90;99.90
12434;DHT22;6281;49.038;8.372;2023-03-24T05:03:55;12.80;99.90
12434;DHT22;6281;49.038;8.372;2023-03-24T05:06:22;12.90;99.90
12434;DHT22;6281;49.038;8.372;2023-03-24T05:08:49;12.90;99.90
12434;DHT22;6281;49.038;8.372;2023-03-24T05:11:17;12.90;99.90
12434;DHT22;6281;49.038;8.372;2023-03-24T05:13:45;12.80;99.90
12434;DHT22;6281;49.038;8.372;2023-03-24T05:16:12;12.80;99.90
12434;DHT22;6281;49.038;8.372;2023-03-24T05:18:40;12.70;99.90
12434;DHT22;6281;49.038;8.372;2023-03-24T05:21:09;12.70;99.90
12434;DHT22;6281;49.038;8.372;2023-03-24T05:23:36;12.70;99.90
12434;DHT22;6281;49.038;8.372;2023-03-24T05:26:03;12.70;99.90
12434;DHT22;6281;49.038;8.372;2023-03-24T05:28:30;12.70;99.90
12434;DHT22;6281;49.038;8.372;2023-03-24T05:30:57;12.70;99.90
12434;DHT22;6281;49.038;8.372;2023-03-24T05:33:24;12.70;99.90
12434;DHT22;6281;49.038;8.372;2023-03-24T05:35:51;12.60;99.90
12434;DHT22;6281;49.038;8.372;2023-03-24T05:38:20;12.70;99.90
12434;DHT22;6281;49.038;8.372;2023-03-24T05:40:46;12.70;99.90
12434;DHT22;6281;49.038;8.372;2023-03-24T05:43:13;12.70;99.90
12434;DHT22;6281;49.038;8.372;2023-03-24T05:45:40;12.70;99.90
12434;DHT22;6281;49.038;8.372;2023-03-24T05:48:07;12.70;99.90
12434;DHT22;6281;49.038;8.372;2023-03-24T05:50:34;12.70;99.90
12434;DHT22;6281;49.038;8.372;2023-03-24T05:53:01;12.70;99.90
12434;DHT22;6281;49.038;8.372;2023-03-24T05:55:29;12.60;99.90
12434;DHT22;6281;49.038;8.372;2023-03-24T06:01:10;12.60;99.90
12434;DHT22;6281;49.038;8.372;2023-03-24T06:03:38;12.60;99.90
12434;DHT22;6281;49.038;8.372;2023-03-24T06:06:06;12.70;99.90
12434;DHT22;6281;49.038;8.372;2023-03-24T06:08:33;12.60;99.90
12434;DHT22;6281;49.038;8.372;2023-03-24T06:11:02;12.60;99.90
12434;DHT22;6281;49.038;8.372;2023-03-24T06:13:29;12.70;99.90
12434;DHT22;6281;49.038;8.372;2023-03-24T06:15:57;12.70;99.90
12434;DHT22;6281;49.038;8.372;2023-03-24T06:18:24;12.70;99.90
12434;DHT22;6281;49.038;8.372;2023-03-24T06:20:52;12.80;99.90
12434;DHT22;6281;49.038;8.372;2023-03-24T06:23:26;12.90;99.90
12434;DHT22;6281;49.038;8.372;2023-03-24T06:25:54;12.70;99.90
12434;DHT22;6281;49.038;8.372;2023-03-24T06:28:24;12.80;99.90
12434;DHT22;6281;49.038;8.372;2023-03-24T06:30:54;12.80;99.90
12434;DHT22;6281;49.038;8.372;2023-03-24T06:33:23;12.80;99.90
12434;DHT22;6281;49.038;8.372;2023-03-24T06:35:50;12.80;99.90
12434;DHT22;6281;49.038;8.372;2023-03-24T06:38:18;12.90;99.90
12434;DHT22;6281;49.038;8.372;2023-03-24T06:40:45;12.70;99.90
12434;DHT22;6281;49.038;8.372;2023-03-24T06:43:12;12.90;99.90
12434;DHT22;6281;49.038;8.372;2023-03-24T06:45:40;12.80;99.90
12434;DHT22;6281;49.038;8.372;2023-03-24T06:48:07;12.80;99.90
12434;DHT22;6281;49.038;8.372;2023-03-24T06:50:34;12.70;99.90
12434;DHT22;6281;49.038;8.372;2023-03-24T06:53:01;12.80;99.90
12434;DHT22;6281;49.038;8.372;2023-03-24T06:55:28;12.80;99.90
12434;DHT22;6281;49.038;8.372;2023-03-24T06:57:59;12.80;99.90
12434;DHT22;6281;49.038;8.372;2023-03-24T07:00:27;12.80;99.90
12434;DHT22;6281;49.038;8.372;2023-03-24T07:02:55;12.70;99.90
12434;DHT22;6281;49.038;8.372;2023-03-24T07:05:22;12.60;99.90
12434;DHT22;6281;49.038;8.372;2023-03-24T07:07:49;12.70;99.90
12434;DHT22;6281;49.038;8.372;2023-03-24T07:10:16;12.60;99.90
12434;DHT22;6281;49.038;8.372;2023-03-24T07:12:44;12.60;99.90
12434;DHT22;6281;49.038;8.372;2023-03-24T07:15:12;12.70;99.90
12434;DHT22;6281;49.038;8.372;2023-03-24T07:17:40;12.60;99.90
12434;DHT22;6281;49.038;8.372;2023-03-24T07:20:09;12.60;99.90
12434;DHT22;6281;49.038;8.372;2023-03-24T07:22:36;12.40;99.90
12434;DHT22;6281;49.038;8.372;2023-03-24T07:25:03;12.40;99.90
12434;DHT22;6281;49.038;8.372;2023-03-24T07:27:31;12.50;99.90
12434;DHT22;6281;49.038;8.372;2023-03-24T07:29:58;12.50;99.90
12434;DHT22;6281;49.038;8.372;2023-03-24T07:32:25;12.50;99.90
12434;DHT22;6281;49.038;8.372;2023-03-24T07:34:53;12.40;99.90
12434;DHT22;6281;49.038;8.372;2023-03-24T07:37:22;12.50;99.90
12434;DHT22;6281;49.038;8.372;2023-03-24T07:39:48;12.40;99.90
12434;DHT22;6281;49.038;8.372;2023-03-24T07:42:15;12.40;99.90
12434;DHT22;6281;49.038;8.372;2023-03-24T07:44:42;12.40;99.90
12434;DHT22;6281;49.038;8.372;2023-03-24T07:47:09;12.40;99.90
12434;DHT22;6281;49.038;8.372;2023-03-24T07:49:36;12.40;99.90
12434;DHT22;6281;49.038;8.372;2023-03-24T07:52:04;12.60;99.90
12434;DHT22;6281;49.038;8.372;2023-03-24T07:54:33;12.50;99.90
12434;DHT22;6281;49.038;8.372;2023-03-24T07:57:02;12.40;99.90
12434;DHT22;6281;49.038;8.372;2023-03-24T07:59:29;12.50;99.90
12434;DHT22;6281;49.038;8.372;2023-03-24T08:01:56;12.60;99.90
12434;DHT22;6281;49.038;8.372;2023-03-24T08:04:23;12.60;99.90
12434;DHT22;6281;49.038;8.372;2023-03-24T08:06:51;12.70;99.90
12434;DHT22;6281;49.038;8.372;2023-03-24T08:09:18;12.70;99.90
12434;DHT22;6281;49.038;8.372;2023-03-24T08:11:50;12.80;99.90
12434;DHT22;6281;49.038;8.372;2023-03-24T08:14:17;12.80;99.90
12434;DHT22;6281;49.038;8.372;2023-03-24T08:16:43;12.90;99.90
12434;DHT22;6281;49.038;8.372;2023-03-24T08:19:11;12.80;99.90
12434;DHT22;6281;49.038;8.372;2023-03-24T08:21:37;12.90;99.90
12434;DHT22;6281;49.038;8.372;2023-03-24T08:24:05;13.00;99.90
12434;DHT22;6281;49.038;8.372;2023-03-24T08:26:32;13.00;99.90
12434;DHT22;6281;49.038;8.372;2023-03-24T08:29:01;13.10;99.90
12434;DHT22;6281;49.038;8.372;2023-03-24T08:31:31;13.20;99.90
12434;DHT22;6281;49.038;8.372;2023-03-24T08:33:58;13.30;99.90
12434;DHT22;6281;49.038;8.372;2023-03-24T08:36:24;13.30;99.90
12434;DHT22;6281;49.038;8.372;2023-03-24T08:38:52;13.30;99.90
12434;DHT22;6281;49.038;8.372;2023-03-24T08:41:20;13.20;99.90
12434;DHT22;6281;49.038;8.372;2023-03-24T08:44:01;13.30;99.90
12434;DHT22;6281;49.038;8.372;2023-03-24T08:46:29;13.40;99.90
12434;DHT22;6281;49.038;8.372;2023-03-24T08:48:56;13.40;99.90
12434;DHT22;6281;49.038;8.372;2023-03-24T08:51:24;13.50;99.90
12434;DHT22;6281;49.038;8.372;2023-03-24T08:53:52;13.60;99.90
12434;DHT22;6281;49.038;8.372;2023-03-24T08:56:20;13.70;99.90
12434;DHT22;6281;49.038;8.372;2023-03-24T08:58:47;13.70;99.90
12434;DHT22;6281;49.038;8.372;2023-03-24T09:01:17;13.90;99.90
12434;DHT22;6281;49.038;8.372;2023-03-24T09:03:45;14.00;99.90
12434;DHT22;6281;49.038;8.372;2023-03-24T09:06:12;13.90;99.90
12434;DHT22;6281;49.038;8.372;2023-03-24T09:08:39;13.90;99.90
12434;DHT22;6281;49.038;8.372;2023-03-24T09:11:10;14.10;99.90
12434;DHT22;6281;49.038;8.372;2023-03-24T09:13:38;14.10;99.90
12434;DHT22;6281;49.038;8.372;2023-03-24T09:16:06;13.60;99.90
12434;DHT22;6281;49.038;8.372;2023-03-24T09:18:34;13.20;99.90
12434;DHT22;6281;49.038;8.372;2023-03-24T09:21:01;13.30;99.90
12434;DHT22;6281;49.038;8.372;2023-03-24T09:23:28;13.20;99.90
12434;DHT22;6281;49.038;8.372;2023-03-24T09:25:56;13.20;99.90
12434;DHT22;6281;49.038;8.372;2023-03-24T09:28:24;13.20;99.90
12434;DHT22;6281;49.038;8.372;2023-03-24T09:30:56;13.30;99.90
12434;DHT22;6281;49.038;8.372;2023-03-24T09:33:23;13.50;99.90
12434;DHT22;6281;49.038;8.372;2023-03-24T09:35:54;13.40;99.90
12434;DHT22;6281;49.038;8.372;2023-03-24T09:38:21;13.40;99.90
12434;DHT22;6281;49.038;8.372;2023-03-24T09:40:51;13.60;99.90
12434;DHT22;6281;49.038;8.372;2023-03-24T09:43:25;13.70;99.90
12434;DHT22;6281;49.038;8.372;2023-03-24T09:45:54;13.80;99.90
12434;DHT22;6281;49.038;8.372;2023-03-24T09:48:30;13.80;99.90
12434;DHT22;6281;49.038;8.372;2023-03-24T09:51:03;13.80;99.90
12434;DHT22;6281;49.038;8.372;2023-03-24T09:53:35;13.90;99.90
12434;DHT22;6281;49.038;8.372;2023-03-24T09:56:10;13.90;99.90
12434;DHT22;6281;49.038;8.372;2023-03-24T09:58:51;14.00;99.90
12434;DHT22;6281;49.038;8.372;2023-03-24T10:01:19;14.00;99.90
12434;DHT22;6281;49.038;8.372;2023-03-24T10:03:46;14.10;99.90
12434;DHT22;6281;49.038;8.372;2023-03-24T10:06:19;14.00;99.90
12434;DHT22;6281;49.038;8.372;2023-03-24T10:08:50;14.00;99.90
12434;DHT22;6281;49.038;8.372;2023-03-24T10:11:23;14.10;99.90
12434;DHT22;6281;49.038;8.372;2023-03-24T10:13:59;14.10;99.90
12434;DHT22;6281;49.038;8.372;2023-03-24T10:16:35;14.10;99.90
12434;DHT22;6281;49.038;8.372;2023-03-24T10:19:18;14.20;99.90
12434;DHT22;6281;49.038;8.372;2023-03-24T10:21:54;14.20;99.90
12434;DHT22;6281;49.038;8.372;2023-03-24T10:24:28;14.20;99.90
12434;DHT22;6281;49.038;8.372;2023-03-24T10:27:01;13.40;99.90
12434;DHT22;6281;49.038;8.372;2023-03-24T10:29:32;13.60;99.90
12434;DHT22;6281;49.038;8.372;2023-03-24T10:32:02;13.80;99.90
12434;DHT22;6281;49.038;8.372;2023-03-24T10:34:32;13.60;99.90
12434;DHT22;6281;49.038;8.372;2023-03-24T10:37:02;13.30;99.90
12434;DHT22;6281;49.038;8.372;2023-03-24T10:39:30;13.70;99.90
12434;DHT22;6281;49.038;8.372;2023-03-24T10:41:58;13.90;99.90
12434;DHT22;6281;49.038;8.372;2023-03-24T10:44:26;14.10;99.90
12434;DHT22;6281;49.038;8.372;2023-03-24T10:46:56;14.10;99.90
12434;DHT22;6281;49.038;8.372;2023-03-24T10:49:24;14.20;99.90
12434;DHT22;6281;49.038;8.372;2023-03-24T10:51:52;14.10;99.90
12434;DHT22;6281;49.038;8.372;2023-03-24T10:54:24;13.60;99.90
12434;DHT22;6281;49.038;8.372;2023-03-24T10:57:26;13.40;99.90
12434;DHT22;6281;49.038;8.372;2023-03-24T10:59:56;13.40;99.90
12434;DHT22;6281;49.038;8.372;2023-03-24T11:02:24;13.40;99.90
12434;DHT22;6281;49.038;8.372;2023-03-24T11:04:55;13.50;99.90
12434;DHT22;6281;49.038;8.372;2023-03-24T11:07:28;13.50;99.90
12434;DHT22;6281;49.038;8.372;2023-03-24T11:09:59;13.60;99.90
12434;DHT22;6281;49.038;8.372;2023-03-24T11:12:29;13.80;99.90
12434;DHT22;6281;49.038;8.372;2023-03-24T11:15:09;13.90;99.90
12434;DHT22;6281;49.038;8.372;2023-03-24T11:17:39;14.00;99.90
12434;DHT22;6281;49.038;8.372;2023-03-24T11:20:15;14.00;99.90
12434;DHT22;6281;49.038;8.372;2023-03-24T11:22:54;14.00;99.90
12434;DHT22;6281;49.038;8.372;2023-03-24T11:25:26;14.00;99.90
12434;DHT22;6281;49.038;8.372;2023-03-24T11:27:58;14.00;99.90
12434;DHT22;6281;49.038;8.372;2023-03-24T11:30:28;13.90;99.90
12434;DHT22;6281;49.038;8.372;2023-03-24T11:32:58;13.90;99.90
12434;DHT22;6281;49.038;8.372;2023-03-24T11:35:26;14.00;99.90
12434;DHT22;6281;49.038;8.372;2023-03-24T11:37:56;14.20;99.90
12434;DHT22;6281;49.038;8.372;2023-03-24T11:40:30;14.20;99.90
12434;DHT22;6281;49.038;8.372;2023-03-24T11:42:58;14.30;99.90
12434;DHT22;6281;49.038;8.372;2023-03-24T11:45:28;14.20;99.90
12434;DHT22;6281;49.038;8.372;2023-03-24T11:48:01;14.10;99.90
12434;DHT22;6281;49.038;8.372;2023-03-24T11:50:33;12.80;99.90
12434;DHT22;6281;49.038;8.372;2023-03-24T11:53:06;11.40;99.90
12434;DHT22;6281;49.038;8.372;2023-03-24T11:55:43;10.70;99.90
12434;DHT22;6281;49.038;8.372;2023-03-24T11:58:17;10.80;99.90
12434;DHT22;6281;49.038;8.372;2023-03-24T12:00:53;11.00;99.90
12434;DHT22;6281;49.038;8.372;2023-03-24T12:03:48;11.00;99.90
12434;DHT22;6281;49.038;8.372;2023-03-24T12:06:30;11.00;99.90
12434;DHT22;6281;49.038;8.372;2023-03-24T12:09:13;11.20;99.90
12434;DHT22;6281;49.038;8.372;2023-03-24T12:12:02;11.00;99.90
12434;DHT22;6281;49.038;8.372;2023-03-24T12:14:39;11.10;99.90
12434;DHT22;6281;49.038;8.372;2023-03-24T12:17:11;11.10;99.90
12434;DHT22;6281;49.038;8.372;2023-03-24T12:20:13;11.00;99.90
12434;DHT22;6281;49.038;8.372;2023-03-24T12:22:49;11.10;99.90
12434;DHT22;6281;49.038;8.372;2023-03-24T12:25:27;11.00;99.90
12434;DHT22;6281;49.038;8.372;2023-03-24T12:28:05;11.00;99.90
12434;DHT22;6281;49.038;8.372;2023-03-24T12:30:43;11.00;99.90
12434;DHT22;6281;49.038;8.372;2023-03-24T12:33:28;11.10;99.90
12434;DHT22;6281;49.038;8.372;2023-03-24T12:36:11;11.10;99.90
12434;DHT22;6281;49.038;8.372;2023-03-24T12:38:50;11.10;99.90
12434;DHT22;6281;49.038;8.372;2023-03-24T12:41:52;11.10;99.90
12434;DHT22;6281;49.038;8.372;2023-03-24T12:44:46;11.20;99.90
12434;DHT22;6281;49.038;8.372;2023-03-24T12:47:34;11.20;99.90
12434;DHT22;6281;49.038;8.372;2023-03-24T12:50:11;11.20;99.90
12434;DHT22;6281;49.038;8.372;2023-03-24T12:52:56;11.30;99.90
12434;DHT22;6281;49.038;8.372;2023-03-24T12:55:31;11.50;99.90
12434;DHT22;6281;49.038;8.372;2023-03-24T12:58:04;11.30;99.90
12434;DHT22;6281;49.038;8.372;2023-03-24T13:00:40;11.40;99.90
12434;DHT22;6281;49.038;8.372;2023-03-24T13:03:11;11.50;99.90
12434;DHT22;6281;49.038;8.372;2023-03-24T13:05:44;11.50;99.90
12434;DHT22;6281;49.038;8.372;2023-03-24T13:08:16;11.50;99.90
12434;DHT22;6281;49.038;8.372;2023-03-24T13:10:49;11.40;99.90
12434;DHT22;6281;49.038;8.372;2023-03-24T13:13:20;11.50;99.90
12434;DHT22;6281;49.038;8.372;2023-03-24T13:15:52;11.50;99.90
12434;DHT22;6281;49.038;8.372;2023-03-24T13:18:28;11.50;99.90
12434;DHT22;6281;49.038;8.372;2023-03-24T13:21:02;11.70;99.90
12434;DHT22;6281;49.038;8.372;2023-03-24T13:23:39;11.70;99.90
12434;DHT22;6281;49.038;8.372;2023-03-24T13:26:19;11.70;99.90
12434;DHT22;6281;49.038;8.372;2023-03-24T13:28:59;12.00;99.90
12434;DHT22;6281;49.038;8.372;2023-03-24T13:31:35;12.10;99.90
12434;DHT22;6281;49.038;8.372;2023-03-24T13:34:05;12.20;99.90
12434;DHT22;6281;49.038;8.372;2023-03-24T13:36:42;12.30;99.90
12434;DHT22;6281;49.038;8.372;2023-03-24T13:39:13;12.10;99.90
12434;DHT22;6281;49.038;8.372;2023-03-24T13:41:46;12.10;99.90
12434;DHT22;6281;49.038;8.372;2023-03-24T13:44:18;12.20;99.90
12434;DHT22;6281;49.038;8.372;2023-03-24T13:47:04;12.20;99.90
12434;DHT22;6281;49.038;8.372;2023-03-24T13:49:32;12.30;99.90
12434;DHT22;6281;49.038;8.372;2023-03-24T13:52:02;12.30;99.90
12434;DHT22;6281;49.038;8.372;2023-03-24T13:54:31;12.50;99.90
12434;DHT22;6281;49.038;8.372;2023-03-24T13:57:04;12.70;99.90
12434;DHT22;6281;49.038;8.372;2023-03-24T13:59:32;12.80;99.90
12434;DHT22;6281;49.038;8.372;2023-03-24T14:02:16;12.70;99.90
12434;DHT22;6281;49.038;8.372;2023-03-24T14:04:45;13.00;99.90
12434;DHT22;6281;49.038;8.372;2023-03-24T14:07:31;12.90;99.90
12434;DHT22;6281;49.038;8.372;2023-03-24T14:10:00;13.10;99.90
12434;DHT22;6281;49.038;8.372;2023-03-24T14:12:30;12.90;99.90
12434;DHT22;6281;49.038;8.372;2023-03-24T14:15:16;13.10;99.90
12434;DHT22;6281;49.038;8.372;2023-03-24T14:17:47;13.00;99.90
12434;DHT22;6281;49.038;8.372;2023-03-24T14:20:27;13.30;99.90
12434;DHT22;6281;49.038;8.372;2023-03-24T14:22:54;13.40;99.90
12434;DHT22;6281;49.038;8.372;2023-03-24T14:25:24;13.30;99.90
12434;DHT22;6281;49.038;8.372;2023-03-24T14:27:54;13.40;99.90
12434;DHT22;6281;49.038;8.372;2023-03-24T14:30:31;13.50;99.90
12434;DHT22;6281;49.038;8.372;2023-03-24T14:33:04;13.60;99.90
12434;DHT22;6281;49.038;8.372;2023-03-24T14:35:33;13.50;99.90
12434;DHT22;6281;49.038;8.372;2023-03-24T14:38:02;13.40;99.90
12434;DHT22;6281;49.038;8.372;2023-03-24T14:40:34;13.40;99.90
12434;DHT22;6281;49.038;8.372;2023-03-24T14:43:16;13.50;99.90
12434;DHT22;6281;49.038;8.372;2023-03-24T14:46:01;13.60;99.90
12434;DHT22;6281;49.038;8.372;2023-03-24T14:51:21;13.60;99.90
12434;DHT22;6281;49.038;8.372;2023-03-24T14:53:55;13.70;99.90
12434;DHT22;6281;49.038;8.372;2023-03-24T14:56:25;13.70;99.90
12434;DHT22;6281;49.038;8.372;2023-03-24T14:58:54;13.80;99.90
12434;DHT22;6281;49.038;8.372;2023-03-24T15:01:25;13.80;99.90
12434;DHT22;6281;49.038;8.372;2023-03-24T15:04:00;13.80;99.90
12434;DHT22;6281;49.038;8.372;2023-03-24T15:06:30;13.60;99.90
12434;DHT22;6281;49.038;8.372;2023-03-24T15:08:59;13.90;99.90
12434;DHT22;6281;49.038;8.372;2023-03-24T15:11:32;13.80;99.90
12434;DHT22;6281;49.038;8.372;2023-03-24T15:14:00;13.80;99.90
12434;DHT22;6281;49.038;8.372;2023-03-24T15:16:29;13.90;99.90
12434;DHT22;6281;49.038;8.372;2023-03-24T15:18:59;13.80;99.90
12434;DHT22;6281;49.038;8.372;2023-03-24T15:21:29;13.80;99.90
12434;DHT22;6281;49.038;8.372;2023-03-24T15:23:58;13.90;99.90
12434;DHT22;6281;49.038;8.372;2023-03-24T15:26:27;14.10;99.90
12434;DHT22;6281;49.038;8.372;2023-03-24T15:28:59;14.30;99.90
12434;DHT22;6281;49.038;8.372;2023-03-24T15:31:27;14.40;99.90
12434;DHT22;6281;49.038;8.372;2023-03-24T15:34:21;14.20;99.90
12434;DHT22;6281;49.038;8.372;2023-03-24T15:36:52;14.00;99.90
12434;DHT22;6281;49.038;8.372;2023-03-24T15:39:25;13.80;99.90
12434;DHT22;6281;49.038;8.372;2023-03-24T15:41:52;13.90;99.90
12434;DHT22;6281;49.038;8.372;2023-03-24T15:44:22;13.90;99.90
12434;DHT22;6281;49.038;8.372;2023-03-24T15:46:54;13.90;99.90
12434;DHT22;6281;49.038;8.372;2023-03-24T15:49:25;14.40;99.90
12434;DHT22;6281;49.038;8.372;2023-03-24T15:51:56;14.60;99.90
12434;DHT22;6281;49.038;8.372;2023-03-24T15:54:25;14.60;99.90
12434;DHT22;6281;49.038;8.372;2023-03-24T15:57:00;15.00;99.90
12434;DHT22;6281;49.038;8.372;2023-03-24T15:59:33;15.40;99.90
12434;DHT22;6281;49.038;8.372;2023-03-24T16:02:03;15.30;99.90
12434;DHT22;6281;49.038;8.372;2023-03-24T16:04:32;15.10;99.90
12434;DHT22;6281;49.038;8.372;2023-03-24T16:06:59;15.00;99.90
12434;DHT22;6281;49.038;8.372;2023-03-24T16:09:34;15.00;99.90
12434;DHT22;6281;49.038;8.372;2023-03-24T16:12:04;14.90;99.90
12434;DHT22;6281;49.038;8.372;2023-03-24T16:14:34;15.00;99.90
12434;DHT22;6281;49.038;8.372;2023-03-24T16:17:03;15.20;99.90
12434;DHT22;6281;49.038;8.372;2023-03-24T16:19:31;15.60;99.90
12434;DHT22;6281;49.038;8.372;2023-03-24T16:21:58;15.50;99.90
12434;DHT22;6281;49.038;8.372;2023-03-24T16:24:25;15.50;99.90